createdAt,value
2018-02-06T00:00:24.724Z,15.33
2018-02-06T00:02:57.166Z,15.50
2018-02-06T00:05:29.639Z,16.10
2018-02-06T00:08:03.111Z,16.70
2018-02-06T00:10:35.623Z,16.73
2018-02-06T00:13:07.944Z,17.20
2018-02-06T00:15:41.068Z,18.10
2018-02-06T00:18:13.972Z,16.27
2018-02-06T00:20:46.536Z,15.90
2018-02-06T00:23:19.030Z,18.17
2018-02-06T00:25:52.241Z,16.20
2018-02-06T00:28:25.170Z,19.40
2018-02-06T00:30:58.635Z,17.13
2018-02-06T00:33:31.397Z,16.70
2018-02-06T00:36:03.940Z,17.87
2018-02-06T00:38:37.245Z,18.13
2018-02-06T00:41:10.786Z,17.27
2018-02-06T00:43:43.764Z,16.40
2018-02-06T00:46:16.549Z,17.97
2018-02-06T00:48:49.182Z,17.70
2018-02-06T00:51:21.812Z,16.17
2018-02-06T00:53:54.576Z,17.73
2018-02-06T00:56:27.286Z,14.83
2018-02-06T00:59:00.529Z,16.50
2018-02-06T01:01:33.303Z,18.30
2018-02-06T01:04:06.717Z,18.70
2018-02-06T01:06:39.943Z,16.50
2018-02-06T01:09:12.365Z,16.73
2018-02-06T01:11:45.061Z,19.23
2018-02-06T01:14:17.472Z,18.87
2018-02-06T01:16:50.039Z,19.07
2018-02-06T01:19:22.402Z,18.40
2018-02-06T01:21:55.095Z,18.23
2018-02-06T01:24:28.008Z,16.83
2018-02-06T01:27:01.055Z,19.50
2018-02-06T01:29:33.609Z,18.60
2018-02-06T01:32:06.007Z,15.93
2018-02-06T01:34:38.589Z,19.20
2018-02-06T01:37:11.337Z,18.47
2018-02-06T01:39:43.964Z,14.20
2018-02-06T01:42:17.405Z,18.80
2018-02-06T01:44:50.177Z,17.33
2018-02-06T01:47:22.656Z,18.10
2018-02-06T01:50:03.477Z,17.03
2018-02-06T01:52:36.141Z,18.00
2018-02-06T01:55:10.088Z,18.03
2018-02-06T01:57:42.871Z,17.93
2018-02-06T02:00:16.344Z,17.87
2018-02-06T02:02:49.771Z,17.77
2018-02-06T02:05:22.665Z,19.40
2018-02-06T02:07:56.484Z,15.20
2018-02-06T02:10:29.058Z,17.70
2018-02-06T02:13:01.642Z,20.77
2018-02-06T02:15:34.116Z,17.10
2018-02-06T02:18:07.170Z,18.93
2018-02-06T02:20:39.746Z,17.03
2018-02-06T02:23:12.229Z,18.70
2018-02-06T02:25:44.898Z,17.90
2018-02-06T02:28:17.233Z,17.60
2018-02-06T02:30:49.826Z,17.20
2018-02-06T02:33:22.563Z,19.47
2018-02-06T02:35:55.112Z,18.87
2018-02-06T02:38:28.275Z,16.00
2018-02-06T02:41:01.034Z,18.50
2018-02-06T04:40:41.168Z,18.30
2018-02-06T04:43:14.367Z,21.23
2018-02-06T04:45:47.180Z,18.40
2018-02-06T04:48:21.584Z,21.07
2018-02-06T04:50:54.970Z,17.93
2018-02-06T04:53:27.760Z,18.07
2018-02-06T04:56:00.354Z,20.00
2018-02-06T04:58:32.772Z,19.33
2018-02-06T05:01:07.357Z,20.13
2018-02-06T05:03:39.949Z,19.37
2018-02-06T05:06:13.475Z,17.80
2018-02-06T05:08:46.185Z,18.50
2018-02-06T05:11:18.968Z,16.17
2018-02-06T05:13:51.524Z,21.30
2018-02-06T05:16:24.656Z,19.50
2018-02-06T05:18:57.863Z,25.57
2018-02-06T05:21:30.439Z,19.50
2018-02-06T05:24:02.933Z,19.60
2018-02-06T05:26:35.789Z,19.33
2018-02-06T05:29:08.321Z,19.63
2018-02-06T05:31:40.956Z,22.00
2018-02-06T05:34:13.292Z,20.03
2018-02-06T05:36:46.685Z,22.50
2018-02-06T05:39:20.246Z,19.90
2018-02-06T05:41:53.022Z,19.20
2018-02-06T05:44:26.308Z,21.70
2018-02-06T05:46:59.272Z,22.23
2018-02-06T05:49:31.737Z,23.10
2018-02-06T05:52:05.109Z,21.17
2018-02-06T05:54:38.159Z,23.70
2018-02-06T05:57:10.820Z,23.60
2018-02-06T05:59:43.156Z,21.17
2018-02-06T06:02:15.956Z,23.70
2018-02-06T06:04:49.207Z,22.80
2018-02-06T06:07:21.874Z,21.00
2018-02-06T06:09:54.496Z,17.17
2018-02-06T06:12:27.032Z,23.60
2018-02-06T06:14:59.530Z,17.00
2018-02-06T06:17:32.929Z,20.03
2018-02-06T06:20:05.572Z,19.93
2018-02-06T06:22:38.655Z,23.13
2018-02-06T06:25:11.339Z,21.60
2018-02-06T06:27:44.793Z,19.10
2018-02-06T06:30:17.124Z,21.93
2018-02-06T06:32:50.261Z,24.00
2018-02-06T06:35:23.681Z,21.87
2018-02-06T06:37:56.406Z,21.50
2018-02-06T06:40:28.781Z,22.63
2018-02-06T06:43:01.692Z,23.90
2018-02-06T06:45:34.098Z,21.20
2018-02-06T06:48:06.722Z,19.90
2018-02-06T06:50:39.221Z,23.77
2018-02-06T06:53:12.637Z,17.77
2018-02-06T06:55:45.387Z,18.57
2018-02-06T06:58:17.838Z,23.57
2018-02-06T07:00:51.071Z,22.93
2018-02-06T07:03:24.077Z,22.90
2018-02-06T07:05:57.647Z,21.50
2018-02-06T07:08:31.023Z,19.17
2018-02-06T07:11:04.528Z,19.37
2018-02-06T07:13:37.373Z,22.00
2018-02-06T07:16:10.618Z,23.53
2018-02-06T07:18:44.223Z,21.90
2018-02-06T07:21:17.182Z,21.80
2018-02-06T07:23:49.772Z,21.10
2018-02-06T07:26:22.355Z,20.23
2018-02-06T07:28:55.854Z,22.43
2018-02-06T07:31:28.463Z,23.33
2018-02-06T07:34:01.699Z,21.83
2018-02-06T07:36:35.461Z,20.33
2018-02-06T07:39:08.322Z,21.50
2018-02-06T07:41:40.986Z,22.70
2018-02-06T07:44:13.586Z,21.33
2018-02-06T07:46:46.831Z,23.37
2018-02-06T07:49:19.690Z,21.17
2018-02-06T07:51:52.089Z,23.87
2018-02-06T07:54:25.546Z,22.17
2018-02-06T07:56:58.225Z,23.90
2018-02-06T07:59:30.896Z,18.20
2018-02-06T08:02:04.036Z,24.70
2018-02-06T08:04:36.870Z,21.47
2018-02-06T08:07:09.396Z,21.47
2018-02-06T08:09:41.862Z,24.07
2018-02-06T08:12:14.405Z,23.13
2018-02-06T08:14:48.031Z,25.43
2018-02-06T08:17:21.042Z,22.20
2018-02-06T08:19:53.623Z,22.50
2018-02-06T08:22:26.103Z,21.63
2018-02-06T08:24:59.266Z,21.20
2018-02-06T08:27:32.056Z,21.33
2018-02-06T08:30:05.534Z,22.43
2018-02-06T08:32:38.462Z,23.00
2018-02-06T08:35:11.078Z,24.50
2018-02-06T08:37:44.817Z,21.73
2018-02-06T08:40:17.433Z,18.87
2018-02-06T08:42:50.663Z,22.57
2018-02-06T08:45:23.287Z,19.80
2018-02-06T08:47:55.822Z,20.07
2018-02-06T08:50:28.289Z,20.57
2018-02-06T08:53:00.893Z,22.67
2018-02-06T08:55:33.578Z,21.40
2018-02-06T08:58:06.928Z,21.87
2018-02-06T09:00:39.752Z,21.67
2018-02-06T09:03:12.095Z,21.53
2018-02-06T09:05:44.783Z,19.53
2018-02-06T09:08:17.142Z,19.60
2018-02-06T09:10:49.744Z,22.57
2018-02-06T09:13:22.399Z,20.57
2018-02-06T09:15:55.828Z,22.73
2018-02-06T09:18:28.357Z,21.73
2018-02-06T09:21:01.072Z,20.40
2018-02-06T09:23:34.199Z,20.90
2018-02-06T09:26:07.482Z,20.33
2018-02-06T09:28:40.168Z,21.40
2018-02-06T09:31:12.570Z,19.97
2018-02-06T09:33:45.021Z,19.30
2018-02-06T09:36:18.185Z,19.20
2018-02-06T09:38:50.886Z,19.83
2018-02-06T09:41:23.481Z,19.27
2018-02-06T09:43:56.690Z,21.77
2018-02-06T09:46:29.081Z,19.77
2018-02-06T09:49:01.435Z,21.77
2018-02-06T09:51:34.127Z,20.97
2018-02-06T09:54:07.365Z,19.50
2018-02-06T09:56:40.224Z,20.53
2018-02-06T09:59:13.348Z,21.90
2018-02-06T10:01:45.730Z,20.63
2018-02-06T10:04:18.139Z,20.90
2018-02-06T10:06:50.833Z,17.50
2018-02-06T10:09:23.123Z,19.30
2018-02-06T10:11:55.967Z,19.13
2018-02-06T10:14:28.393Z,18.27
2018-02-06T10:17:01.596Z,20.90
2018-02-06T10:19:34.557Z,17.60
2018-02-06T10:22:06.986Z,17.27
2018-02-06T10:24:39.624Z,16.00
2018-02-06T10:27:12.101Z,18.03
2018-02-06T10:29:44.502Z,16.50
2018-02-06T10:32:17.942Z,17.40
2018-02-06T10:34:50.683Z,16.10
2018-02-06T10:37:24.125Z,13.60
2018-02-06T10:39:57.252Z,18.20
2018-02-06T10:42:29.768Z,17.80
2018-02-06T10:45:02.428Z,14.40
2018-02-06T10:47:35.707Z,17.07
2018-02-06T10:50:08.196Z,17.40
2018-02-06T10:52:40.693Z,15.47
2018-02-06T10:55:14.096Z,15.40
2018-02-06T10:57:46.870Z,15.13
2018-02-06T11:00:19.406Z,14.73
2018-02-06T11:02:52.139Z,12.37
2018-02-06T11:05:24.778Z,12.10
2018-02-06T11:07:58.102Z,13.83
2018-02-06T11:10:30.881Z,13.07
2018-02-06T11:13:03.438Z,12.37
2018-02-06T11:15:36.836Z,14.63
2018-02-06T11:18:09.984Z,10.90
2018-02-06T11:20:43.349Z,13.53
2018-02-06T11:23:16.102Z,12.00
2018-02-06T11:25:48.660Z,15.20
2018-02-06T11:28:21.990Z,13.87
2018-02-06T11:30:55.601Z,13.33
2018-02-06T11:33:28.475Z,16.80
2018-02-06T11:36:00.972Z,15.07
2018-02-06T11:38:33.491Z,16.00
2018-02-06T11:41:05.925Z,16.43
2018-02-06T11:43:38.450Z,15.90
2018-02-06T11:46:11.051Z,12.97
2018-02-06T11:48:43.857Z,14.30
2018-02-06T11:51:16.509Z,13.57
2018-02-06T11:53:49.118Z,13.73
2018-02-06T11:56:21.445Z,11.63
2018-02-06T11:58:54.896Z,14.53
2018-02-06T12:01:27.414Z,12.43
2018-02-06T12:04:00.044Z,12.17
2018-02-06T12:06:33.296Z,12.57
2018-02-06T12:09:06.170Z,13.10
2018-02-06T12:11:38.859Z,14.20
2018-02-06T12:14:12.160Z,13.73
2018-02-06T12:16:45.037Z,14.30
2018-02-06T12:19:17.697Z,15.20
2018-02-06T12:21:50.211Z,12.30
2018-02-06T12:24:22.938Z,14.70
2018-02-06T12:26:55.494Z,14.40
2018-02-06T12:29:28.078Z,16.60
2018-02-06T12:32:00.581Z,14.83
2018-02-06T12:34:33.063Z,15.80
2018-02-06T12:37:05.445Z,14.50
2018-02-06T12:39:37.932Z,16.73
2018-02-06T12:42:10.453Z,15.80
2018-02-06T12:44:42.959Z,18.40
2018-02-06T12:47:15.416Z,18.43
2018-02-06T12:49:47.822Z,17.00
2018-02-06T12:52:21.117Z,17.87
2018-02-06T12:54:53.897Z,16.67
2018-02-06T12:57:27.843Z,16.90
2018-02-06T13:00:00.550Z,21.00
2018-02-06T13:02:33.118Z,19.20
2018-02-06T13:05:06.588Z,19.13
2018-02-06T13:07:39.070Z,20.80
2018-02-06T13:10:11.508Z,18.43
2018-02-06T13:12:43.942Z,19.47
2018-02-06T13:15:16.339Z,17.60
2018-02-06T13:17:49.007Z,18.17
2018-02-06T13:20:21.754Z,19.33
2018-02-06T13:22:54.188Z,19.90
2018-02-06T13:25:26.743Z,22.07
2018-02-06T13:28:00.060Z,17.97
2018-02-06T13:30:33.451Z,17.70
2018-02-06T13:33:06.202Z,18.20
2018-02-06T13:35:38.845Z,19.20
2018-02-06T13:38:11.394Z,19.07
2018-02-06T13:40:43.938Z,19.07
2018-02-06T13:43:16.437Z,15.90
2018-02-06T13:45:49.277Z,20.10
2018-02-06T13:48:22.514Z,17.17
2018-02-06T13:50:55.105Z,19.60
2018-02-06T13:53:27.563Z,16.70
2018-02-06T13:56:00.266Z,20.87
2018-02-06T13:58:32.951Z,20.23
2018-02-06T14:01:06.113Z,20.20
2018-02-06T14:03:38.983Z,17.90
2018-02-06T14:06:11.738Z,19.20
2018-02-06T14:08:45.052Z,16.07
2018-02-06T14:11:17.558Z,16.60
2018-02-06T14:13:50.298Z,18.10
2018-02-06T14:16:22.708Z,17.60
2018-02-06T14:18:55.276Z,20.33
2018-02-06T14:21:27.889Z,16.50
2018-02-06T14:24:00.266Z,18.00
2018-02-06T14:26:32.833Z,19.07
2018-02-06T14:29:05.425Z,19.03
2018-02-06T14:31:37.958Z,17.03
2018-02-06T14:34:10.484Z,17.37
2018-02-06T14:36:43.274Z,16.07
2018-02-06T14:39:17.253Z,16.33
2018-02-06T14:41:50.224Z,15.60
2018-02-06T14:44:22.813Z,15.60
2018-02-06T14:46:56.204Z,15.23
2018-02-06T14:49:29.038Z,15.47
2018-02-06T14:52:01.493Z,13.77
2018-02-06T14:54:34.828Z,16.07
2018-02-06T14:57:07.528Z,17.07
2018-02-06T14:59:40.141Z,17.00
2018-02-06T15:02:12.796Z,16.43
2018-02-06T15:04:45.913Z,16.70
2018-02-06T15:07:18.877Z,15.70
2018-02-06T15:09:51.275Z,15.37
2018-02-06T15:12:23.930Z,14.90
2018-02-06T15:14:56.463Z,17.93
2018-02-06T15:17:28.921Z,17.80
2018-02-06T15:20:02.158Z,15.60
2018-02-06T15:22:35.122Z,16.60
2018-02-06T15:25:07.463Z,15.30
2018-02-06T15:27:40.795Z,16.10
2018-02-06T15:30:14.169Z,15.90
2018-02-06T15:32:46.865Z,15.67
2018-02-06T15:35:19.235Z,15.60
2018-02-06T15:37:52.008Z,15.67
2018-02-06T15:40:25.293Z,13.03
2018-02-06T15:42:58.465Z,15.57
2018-02-06T15:45:31.339Z,14.13
2018-02-06T15:48:04.141Z,14.80
2018-02-06T15:50:36.613Z,13.93
2018-02-06T15:53:09.252Z,14.23
2018-02-06T15:55:41.566Z,13.93
2018-02-06T15:58:15.067Z,13.97
2018-02-06T16:00:49.048Z,14.33
2018-02-06T16:03:22.254Z,15.30
2018-02-06T16:05:55.502Z,16.70
2018-02-06T16:08:28.122Z,14.90
2018-02-06T16:11:00.570Z,15.73
2018-02-06T16:13:33.079Z,13.00
2018-02-06T16:16:05.534Z,14.10
2018-02-06T16:18:38.948Z,14.57
2018-02-06T16:21:11.773Z,15.23
2018-02-06T16:23:44.445Z,14.90
2018-02-06T16:26:16.925Z,14.97
2018-02-06T16:28:49.591Z,12.83
2018-02-06T16:31:22.106Z,14.27
2018-02-06T16:33:54.561Z,14.50
2018-02-06T16:36:27.438Z,16.27
2018-02-06T16:39:00.311Z,15.33
2018-02-06T16:41:32.712Z,14.73
2018-02-06T16:44:06.037Z,16.60
2018-02-06T16:46:38.549Z,14.77
2018-02-06T16:49:11.235Z,16.07
2018-02-06T16:51:43.817Z,14.67
2018-02-06T16:54:17.426Z,17.53
2018-02-06T16:56:50.010Z,15.80
2018-02-06T16:59:22.818Z,15.93
2018-02-06T17:01:55.263Z,16.80
2018-02-06T17:04:28.120Z,17.50
2018-02-06T17:07:01.375Z,18.77
2018-02-06T17:09:34.627Z,16.37
2018-02-06T17:12:07.407Z,16.90
2018-02-06T17:14:40.043Z,17.93
2018-02-06T17:17:12.662Z,16.93
2018-02-06T17:19:45.398Z,18.17
2018-02-06T17:22:17.833Z,17.80
2018-02-06T17:24:50.419Z,15.90
2018-02-06T17:27:22.962Z,16.90
2018-02-06T17:29:56.299Z,16.33
2018-02-06T17:32:29.183Z,20.47
2018-02-06T17:35:03.150Z,16.77
2018-02-06T17:37:37.246Z,19.07
2018-02-06T17:40:10.018Z,21.17
2018-02-06T17:42:42.738Z,19.50
2018-02-06T17:45:15.258Z,17.57
2018-02-06T17:47:49.104Z,19.03
2018-02-06T17:50:22.384Z,16.90
2018-02-06T17:52:55.063Z,17.60
2018-02-06T17:55:27.651Z,21.20
2018-02-06T17:58:00.948Z,19.83
2018-02-06T18:00:33.736Z,18.10
2018-02-06T18:03:06.297Z,20.60
2018-02-06T18:05:38.775Z,18.83
2018-02-06T18:08:11.465Z,19.97
2018-02-06T18:10:44.957Z,20.47
2018-02-06T18:13:17.944Z,20.63
2018-02-06T18:15:51.329Z,21.00
2018-02-06T18:18:25.102Z,22.10
2018-02-06T18:20:58.040Z,17.23
2018-02-06T18:23:30.575Z,19.93
2018-02-06T18:26:04.112Z,22.33
2018-02-06T18:28:37.419Z,18.90
2018-02-06T18:31:10.894Z,19.93
2018-02-06T18:33:43.268Z,19.33
2018-02-06T18:36:16.358Z,23.70
2018-02-06T18:38:52.152Z,21.70
2018-02-06T18:41:25.287Z,20.10
2018-02-06T18:43:59.002Z,19.70
2018-02-06T18:46:33.152Z,20.37
2018-02-06T18:49:06.658Z,23.53
2018-02-06T18:51:39.446Z,20.97
2018-02-06T18:54:13.828Z,19.10
2018-02-06T18:56:48.026Z,21.40
2018-02-06T18:59:22.029Z,21.23
2018-02-06T19:01:55.887Z,22.43
2018-02-06T19:04:28.638Z,20.90
2018-02-06T19:07:02.475Z,23.23
2018-02-06T19:09:35.763Z,19.90
2018-02-06T19:12:10.540Z,17.47
2018-02-06T19:14:45.572Z,21.10
2018-02-06T19:17:20.891Z,20.57
2018-02-06T19:19:56.286Z,23.57
2018-02-06T19:22:32.095Z,23.07
2018-02-06T19:25:07.144Z,22.67
2018-02-06T19:27:43.496Z,17.47
2018-02-06T19:30:19.264Z,19.77
2018-02-06T19:32:55.481Z,20.73
2018-02-06T19:35:31.685Z,19.53
2018-02-06T19:38:07.279Z,19.33
2018-02-06T19:40:42.348Z,19.93
2018-02-06T19:43:17.975Z,20.30
2018-02-06T19:45:53.615Z,18.90
2018-02-06T19:48:29.787Z,17.50
2018-02-06T19:51:04.838Z,18.47
2018-02-06T19:53:40.407Z,20.30
2018-02-06T19:56:15.719Z,20.87
2018-02-06T19:58:51.872Z,22.13
2018-02-06T20:01:28.090Z,21.70
2018-02-06T20:04:03.685Z,24.47
2018-02-06T20:06:39.432Z,19.90
2018-02-06T20:09:15.175Z,23.17
2018-02-06T20:11:50.883Z,18.63
2018-02-06T20:14:26.723Z,19.73
2018-02-06T20:17:03.161Z,19.63
2018-02-06T20:19:37.998Z,21.33
2018-02-06T20:22:13.689Z,21.53
2018-02-06T20:24:49.628Z,16.40
2018-02-06T20:27:24.885Z,17.53
2018-02-06T20:30:00.494Z,15.50
2018-02-06T20:32:36.554Z,20.67
2018-02-06T20:35:12.178Z,16.23
2018-02-06T20:37:46.944Z,21.73
2018-02-06T20:40:22.606Z,21.20
2018-02-06T20:42:58.644Z,21.17
2018-02-06T20:45:33.767Z,21.23
2018-02-06T20:48:09.181Z,18.73
2018-02-06T20:50:44.838Z,19.90
2018-02-06T20:53:20.823Z,19.33
2018-02-06T20:55:56.653Z,21.27
2018-02-06T20:58:32.385Z,18.20
2018-02-06T21:01:07.238Z,18.10
2018-02-06T21:03:41.509Z,21.30
2018-02-06T21:06:15.815Z,19.30
2018-02-06T21:08:51.376Z,20.80
2018-02-06T21:11:26.623Z,21.43
2018-02-06T21:14:02.296Z,23.30
2018-02-06T21:16:38.065Z,19.63
2018-02-06T21:19:13.269Z,20.23
2018-02-06T21:21:48.187Z,21.77
2018-02-06T21:24:23.160Z,20.40
2018-02-06T21:26:57.128Z,19.10
2018-02-06T21:29:32.928Z,19.27
2018-02-06T21:32:08.298Z,21.63
2018-02-06T21:34:42.841Z,23.23
2018-02-06T21:37:16.746Z,20.60
2018-02-06T21:39:50.717Z,21.63
2018-02-06T21:42:24.413Z,22.97
2018-02-06T21:44:57.817Z,21.50
2018-02-06T21:47:30.632Z,17.63
2018-02-06T21:50:03.683Z,22.00
2018-02-06T21:52:37.146Z,19.80
2018-02-06T21:55:09.591Z,18.47
2018-02-06T21:57:43.046Z,20.53
2018-02-06T22:00:15.594Z,20.57
2018-02-06T22:02:48.406Z,22.20
2018-02-06T22:05:21.603Z,23.37
2018-02-06T22:07:54.883Z,25.00
2018-02-06T22:10:27.421Z,22.47
2018-02-06T22:13:00.033Z,20.97
2018-02-06T22:15:33.280Z,22.83
2018-02-06T22:18:05.758Z,20.07
2018-02-06T22:20:39.098Z,22.20
2018-02-06T22:23:12.939Z,15.47
2018-02-06T22:25:45.552Z,17.10
2018-02-06T22:28:19.133Z,20.97
2018-02-06T22:30:51.562Z,20.10
2018-02-06T22:33:24.682Z,17.50
2018-02-06T22:35:57.299Z,21.60
2018-02-06T22:38:29.936Z,23.90
2018-02-06T22:41:02.473Z,20.10
2018-02-06T22:43:35.209Z,21.93
2018-02-06T22:46:08.309Z,18.13
2018-02-06T22:48:40.955Z,18.23
2018-02-06T22:51:14.060Z,18.70
2018-02-06T22:53:46.814Z,18.30
2018-02-06T22:56:19.407Z,20.73
2018-02-06T22:58:52.160Z,19.90
2018-02-06T23:01:25.308Z,17.37
2018-02-06T23:03:58.013Z,15.30
2018-02-06T23:06:31.159Z,18.77
2018-02-06T23:09:04.238Z,19.67
2018-02-06T23:11:36.777Z,18.30
2018-02-06T23:14:09.678Z,22.60
2018-02-06T23:16:42.945Z,22.63
2018-02-06T23:19:15.474Z,21.40
2018-02-06T23:21:48.161Z,21.27
2018-02-06T23:24:20.599Z,20.07
2018-02-06T23:26:53.128Z,27.20
2018-02-06T23:29:25.640Z,19.87
2018-02-06T23:31:58.967Z,22.03
2018-02-06T23:34:31.507Z,22.50
2018-02-06T23:37:03.970Z,23.13
2018-02-06T23:39:36.642Z,19.70
2018-02-06T23:42:08.991Z,22.40
2018-02-06T23:44:42.265Z,21.50
2018-02-06T23:47:15.203Z,25.03
2018-02-06T23:49:48.612Z,17.43
2018-02-06T23:52:21.037Z,25.43
2018-02-06T23:54:53.736Z,23.47
2018-02-06T23:57:27.000Z,24.87
2018-02-06T23:59:59.704Z,23.80
